SÍGUENOS

APP INUMET

Disponible en Google Play

Productos aeronáuticos

  • SIGMET
  • METAR / SPECI
  • TAF
  • AIREP
  • Aviso de aeródromo
  • Pronárea
  • Carta superficie
Fecha : 23/07/2017
FTUY 01 SUMU 22 23 30
SUMU TAF 222330Z 2300/2324 01010KT CAVOK TX19/2318Z TN10/2310Z PROB30 TEMPO 2308/2312 VRB03KT 5000 BR NSC BECMG 2313/2315 34015KT 9999 SCT020 BKN080 BECMG 2321/2323 09005KT=
SULS TAF 222330Z 2300/2324 01010KT CAVOK TX19/2318Z TN10/2310Z PROB30 TEMPO 2308/2312 VRB03KT 5000 BR NSC BECMG 2313/2315 34015KT 9999 SCT020 BKN080 BECMG 2321/2323 09005KT=
SUAA TAF 222330Z 2300/2324 01010KT CAVOK TX19/2318Z TN10/2310Z PROB30 TEMPO 2308/2312 VRB03KT 5000 BR NSC BECMG 2313/2315 34015KT 9999 SCT020 BKN080 BECMG 2321/2323 09005KT=
SUCA TAF 222330Z 2300/2324 01010KT CAVOK TX19/2318Z TN10/2310Z PROB30 TEMPO 2308/2312 VRB03KT 5000 BR NSC BECMG 2313/2315 34015KT 9999 SCT020 BKN080 BECMG 2321/2323 09005KT=
SUDU TAF 222330Z 2300/2324 04005KT CAVOK TX24/2318Z TN08/2310Z PROB30 TEMPO 2306/2312 00000KT 2000 BR NSC BECMG 2313/2315 36015KT=
SUSO TAF 222330Z 2300/2324 03008KT CAVOK TX26/2318Z TN09/2310Z PROB30 TEMPO 2309/2312 00000KT 2000 BR NSC BECMG 2313/2315 36015KT=
SURV TAF 222330Z 2300/2324 04005KT CAVOK TX24/2318Z TN08/2310Z PROB30 TEMPO 2306/2312 00000KT 2000 BR NSC BECMG 2313/2315 36015KT=

Predictor :


Mensajes TAF vigentes - Internacionales


Argentina
TAF SAEZ 222300Z 2300/2324 03005KT CAVOK TX18/2318Z TN10/2310Z BECMG 2312/2315 34003KT 9999 SCT040 BECMG 2318/2321 17005KT 9999 BKN040 PROB30 2321/2324 8000 -RA
TAF SAAR 222300Z 2300/2324 03005KT CAVOK TX24/2318Z TN12/2310Z PROB40 2306/2311 3000 BR NSC BECMG 2312/2315 34010KT CAVOK BECMG 2319/2322 23005KT BKN040
TAF SABE 222300Z 2300/2324 03010KT CAVOK TX17/2318Z TN10/2310Z PROB30 2310/2312 02005KT 8000 NSC BECMG 2313/2315 VRB03KT 9999 SCT035 BKN100 BECMG 2318/2320 16010KT
TAF SACO 222300Z 2300/2324 36010KT CAVOK TX26/2318Z TN06/2310Z BECMG 2317/2320 18015KT 9999 SCT035
TAF SAME 222300Z 2300/2324 25005KT CAVOK TN01/2310Z TX17/2320Z PROB40 TEMPO 2311/2314 16005KT 6000 HZFU NSC BECMG 2315/2317 05005KT 9999 FEW040 PROB30 TEMPO 2317/2321 28015G25KT 8000 DU BECMG 2321/2323 18010KT 9999 SCT040 SCT070
Bolivia
TAF SLLP 222215Z 2300/2324 08005KT 9999 NSC TX17/2320Z TNM05/2310Z PROB40 TEMPO 2306/2310 3000 VCFG FEW002 BECMG 2312/2314 25007KT TEMPO 2318/2322 14010G20KT FEW020
Brasil
TAF SBGR 222222Z 2300/2406 13003KT 8000 BKN013 TN10/2309Z TX24/2318Z BECMG 2301/2303 10004KT FEW011 PROB40 2308/2312 0200 FG OVC002 BECMG 2312/2314 09005KT FEW015 BECMG 2314/2316 FEW025 BECMG 2320/2322 14005KT 6000 BKN011 BECMG 2323/2401 08005KT NSC RMK PGQ
TAF SBSP 222222Z 2300/2324 15007KT 6000 BKN011 TN12/2307Z TX23/2318Z BECMG 2301/2303 FEW009 PROB40 2308/2311 3000 BR BKN006 BECMG 2311/2313 13005KT 9999 FEW015 BECMG 2313/2315 06005KT CAVOK BECMG 2317/2319 16008KT FEW025 BECMG 2319/2321 6000 FEW009 BKN011 BECMG 2321/2323 8000 FEW010 RMK PGQ
TAF SBPA 222200Z 2300/2324 10006KT CAVOK TN10/2309Z TX25/2318Z PROB30 2307/2311 3000 BR NSC RMK PER
TAF SBFL 222200Z 2300/2324 36007KT CAVOK TN15/2309Z TX20/2318Z BECMG 2300/2302 9999 SCT030 PROB40 2307/2310 BKN020 BECMG 2311/2313 CAVOK RMK PER
TAF SBFI 222200Z 2300/2324 04003KT CAVOK TN14/2309Z TX28/2318Z BECMG 2310/2312 08007KT RMK PER
TAF SBRJ 222045Z 2300/2312 20005KT 8000 SCT023 TN19/2309Z TX22/2312Z BECMG 2302/2305 32005KT SCT015 BECMG 2309/2311 02004KT 5000 BR SCT010 RMK PHC
TAF SBBR 222000Z 2300/2324 10007KT CAVOK TN13/2310Z TX26/2317Z BECMG 2310/2312 08010KT BECMG 2318/2320 09005KT RMK PDC
Colombia
TAF SKBO 222300Z 2300/2324 14008KT 9999 SCT017 SCT080 TEMPO 2302/2305 9000 -DZ BKN017 SCT080 PROB40 TEMPO 2306/2313 8000 DZ SCT015 BKN070 TEMPO 2314/2317 8000 VCSH BKN017 TX20/2318Z TN10/2311Z
Chile
TAF SCEL 222252Z 2300/2324 23005KT 7000 SCT025 OVC040 TX12/2318Z TN08/2310Z BECMG 2301/2303 09002KT BECMG 2304/2306 5000 HZ TEMPO 2306/2314 1200 -DZ SCT002 BKN008 OVC012 BECMG 2315/2317 35004KT 5000 HZ FEW025 SCT030 BKN080 TEMPO 2321/2322 7000 -SHRA BKN020 OVC050
TAF SCCI 222242Z 2300/2400 27015KT 9999 SCT035 TN02/2312Z TX06/2318Z PROB30 TEMPO 2300/2307 9000 -DZ SCT010 BKN025 BECMG 2304/2306 27015G25KT SCT030 BECMG 2316/2318 30010KT BECMG 2320/2322 33010KT 9000 BKN040
Ecuador
SEQM 222245Z 2300/2324 03005KT 9999 SCT030 BECMG 2306/2308 15005KT BKN030 FM231200 VRB03KT 9999 SCT033 FM231800 36015KT 9999 SCT033 SCT100 TX25/2319Z TN08/2311Z
EEUU
KMIA 222337Z 2300/2324 VRB06KT P6SM FEW030 BKN250 FM231600 13010KT P6SM SCT030 SCT250
KDCA 222335Z 2300/2324 27006KT P6SM BKN060 FM230300 24006KT 5SM SHRA VCTS OVC060CB FM230600 24006KT P6SM VCTS BKN060CB FM231100 26006KT P6SM BKN200 FM232300 22007KT P6SM BKN050
KIAD 222335Z 2300/2406 26005KT P6SM OVC060 FM230200 23005KT 4SM SHRA VCTS OVC045CB FM230600 24005KT P6SM VCTS BKN070CB FM230900 24006KT P6SM BKN250 FM231500 28007KT P6SM BKN040 FM232000 24007KT P6SM BKN045
KJFK 222322Z 2300/2406 14007KT P6SM VCTS SCT045CB BKN070 TEMPO 2300/2304 4SM TSRA BKN035CB FM230400 10009KT P6SM RA SCT025 OVC040 FM231000 04009KT P6SM BKN025 FM231600 12010KT P6SM BKN040
KLGA 222322Z 2300/2324 14006KT P6SM VCTS SCT045CB BKN070 TEMPO 2300/2304 4SM TSRA BKN035CB FM230400 09008KT P6SM RA SCT025 OVC050 FM231000 04008KT P6SM SCT025 FM231600 12009KT P6SM BKN040
España
TAF LEMD 222300Z 2300/2406 VRB05KT CAVOK TX35/2315Z TN18/2306Z PROB30 TEMPO 2300/2307 02010KT BECMG 2310/2312 23010KT BECMG 2320/2322 VRB05KT
TAF LEBL 222300Z 2300/2324 VRB03KT 9999 FEW015 TX29/2312Z TN22/2305Z TEMPO 2302/2307 BKN014 BECMG 2306/2309 10010KT PROB40 TEMPO 2316/2320 FEW020CB BKN030 BECMG 2318/2321 32005KT
Francia
TAF LFPO 222300Z 2300/2406 22006KT CAVOK PROB30 TEMPO 2303/2306 6000 BKN010 BECMG 2306/2309 9999 BKN025 BECMG 2317/2319 -RA BKN020 TEMPO 2322/2406 RA BKN004 BKN012 SCT020TCU
Inglaterra
TAF EGLL 222250Z 2300/2406 VRB03KT 9999 SCT040 PROB30 TEMPO 2303/2307 6000 BKN011 BECMG 2309/2312 26012KT TEMPO 2311/2320 7000 SHRA PROB30 TEMPO 2315/2319 4000 +SHRA BECMG 2400/2403 -RA BKN012 PROB30 TEMPO 2403/2406 7000 RA BKN008
Panamá
TAF MPTO 222300Z 2300/2406 00000KT 9999 SCT018 SCT090 TEMPO 2300/2302 28004KT 9000 -RA SCT016 BKN090 PROB30 TEMPO 2317/2321 17006KT 6000 -TSRA SCT015CB BKN090 TEMPO 2322/2402 33005KT
Paraguay
TAF SGAS 222230Z 2300/2400 06004KT 5000 FU NSC TX30/2319Z TN14/2310Z TEMPO 2302/2304 04005KT 3000 BR NSC BECMG 2308/2311 4000 BR NSC BECMG 2313/2316 07016KT CAVOK
Venezuela
TAF SVMI 222200Z 2300/2400 07009KT 9999 SCT016 TX33/19Z TN24/09Z BECMG 2300/2304 05006KT SCT013 SCT090

* Datos extraidos del Text DataServer de la NOAA (NOAA TEXT DATA SERVER)

Instituto Uruguayo de Meteorología

Dr. Javier Barrios Amorín 1488 - CP 11200
Mesa Central (598) 1895

Montevideo - Uruguay